Hubbell, Michigan
Current Conditions -  °F | °C
As of 10:53 PM on Monday 20 Oct 2014 (Local Time) from KCMX Reporting Station
Overcast Overcast  
Wind Chill: 34°   Ceiling: 1500
Heat Index: 41°   Visibility: 10mi
Dew Point: 35°   Wind: 12mph
Humidity: 79%   Direction: 30°NNE
Pressure: 30.07"   Gusts: NA
Location:  47.17°N, 88.43°W
Report Text: KCMX 210253Z AUTO 03010KT 10SM BKN015 OVC020 05/02 A3007 RMK AO2 SLP192 T00500017 53016
Loading
Personal Weather Stations






























Interactive Weather Map New forecast layout! Learn more

10-Day Weather Forecast

Advertisements
Track Severe Weather on mobile